createdAt,value
2023-04-12T00:04:28.863Z,99985.31
2023-04-12T00:09:34.073Z,99975.75
2023-04-12T00:14:37.416Z,99969.00
2023-04-12T00:19:43.863Z,99958.94
2023-04-12T00:24:47.484Z,99956.56
2023-04-12T00:29:50.844Z,99944.75
2023-04-12T00:34:55.657Z,99932.09
2023-04-12T00:39:59.822Z,99932.44
2023-04-12T00:45:03.016Z,99926.63
2023-04-12T00:50:09.868Z,99929.34
2023-04-12T00:55:13.328Z,99925.34
2023-04-12T01:00:17.864Z,99909.94
2023-04-12T01:05:24.555Z,99894.72
2023-04-12T01:10:36.810Z,99894.22
2023-04-12T01:15:49.236Z,99889.38
2023-04-12T01:21:07.113Z,99893.94
2023-04-12T01:26:34.899Z,99888.84
2023-04-12T01:31:42.815Z,99880.34
2023-04-12T01:36:50.437Z,99868.09
2023-04-12T01:41:57.218Z,99868.09
2023-04-12T01:47:02.863Z,99850.44
2023-04-12T01:52:31.266Z,99844.91
2023-04-12T01:57:40.502Z,99845.75
2023-04-12T02:02:46.949Z,99846.44
2023-04-12T02:07:55.542Z,99843.75
2023-04-12T02:13:01.444Z,99841.97
2023-04-12T02:18:06.991Z,99839.16
2023-04-12T02:23:10.518Z,99832.06
2023-04-12T02:28:13.884Z,99825.59
2023-04-12T02:33:18.638Z,99817.72
2023-04-12T02:38:23.129Z,99805.22
2023-04-12T02:43:26.437Z,99796.38
2023-04-12T02:48:31.224Z,99798.50
2023-04-12T02:53:35.752Z,99771.50
2023-04-12T02:58:40.099Z,99763.34
2023-04-12T03:03:44.950Z,99756.84
2023-04-12T03:08:48.269Z,99745.72
2023-04-12T03:13:52.466Z,99753.84
2023-04-12T03:18:57.749Z,99743.25
2023-04-12T03:24:01.676Z,99729.88
2023-04-12T03:29:10.071Z,99737.19
2023-04-12T03:34:16.517Z,99729.97
2023-04-12T03:39:19.871Z,99719.00
2023-04-12T03:44:26.205Z,99724.28
2023-04-12T03:49:31.637Z,99726.16
2023-04-12T03:54:35.032Z,99721.22
2023-04-12T03:59:38.297Z,99695.28
2023-04-12T04:04:43.338Z,99702.34
2023-04-12T04:09:46.772Z,99694.56
2023-04-12T04:14:49.988Z,99687.00
2023-04-12T04:19:54.646Z,99683.97
2023-04-12T04:24:58.524Z,99673.25
2023-04-12T04:30:02.980Z,99658.03
2023-04-12T04:35:09.180Z,99671.03
2023-04-12T04:40:13.126Z,99661.59
2023-04-12T04:45:16.428Z,99659.47
2023-04-12T04:50:22.972Z,99641.31
2023-04-12T04:55:26.208Z,99638.81
2023-04-12T05:00:29.807Z,99625.78
2023-04-12T05:05:34.490Z,99624.38
2023-04-12T05:10:40.363Z,99621.31
2023-04-12T05:15:44.348Z,99611.63
2023-04-12T05:20:50.141Z,99611.63
2023-04-12T05:25:53.874Z,99597.19
2023-04-12T05:30:57.069Z,99591.34
2023-04-12T05:36:07.207Z,99580.63
2023-04-12T05:41:10.498Z,99575.34
2023-04-12T05:46:17.365Z,99565.78
2023-04-12T05:51:34.099Z,99560.72
2023-04-12T05:56:43.550Z,99560.44
2023-04-12T06:01:46.900Z,99561.84
2023-04-12T06:06:51.620Z,99549.06
2023-04-12T06:11:54.934Z,99541.50
2023-04-12T06:16:58.155Z,99530.72
2023-04-12T06:22:02.970Z,99532.16
2023-04-12T06:27:06.657Z,99526.44
2023-04-12T06:32:09.815Z,99515.06
2023-04-12T06:37:14.603Z,99508.41
2023-04-12T06:42:19.008Z,99499.31
2023-04-12T06:47:23.823Z,99502.50
2023-04-12T06:52:28.932Z,99496.53
2023-04-12T06:57:32.137Z,99486.84
2023-04-12T07:02:35.416Z,99490.19
2023-04-12T07:07:40.429Z,99463.22
2023-04-12T07:12:44.607Z,99461.47
2023-04-12T07:17:48.004Z,99455.66
2023-04-12T07:22:52.950Z,99437.31
2023-04-12T07:27:57.576Z,99425.97
2023-04-12T07:33:18.602Z,99412.84
2023-04-12T07:38:24.046Z,99408.63
2023-04-12T07:43:27.472Z,99397.84
2023-04-12T07:48:31.056Z,99377.53
2023-04-12T07:53:35.971Z,99392.00
2023-04-12T07:58:39.327Z,99365.84
2023-04-12T08:03:43.228Z,99354.47
2023-04-12T08:08:48.024Z,99341.75
2023-04-12T08:13:52.735Z,99351.53
2023-04-12T08:18:56.119Z,99344.41
2023-04-12T08:24:01.269Z,99334.25
2023-04-12T08:29:04.689Z,99331.78
2023-04-12T08:34:26.633Z,99314.38
2023-04-12T08:39:49.960Z,99304.97
2023-04-12T08:44:53.859Z,99301.88
2023-04-12T08:49:58.910Z,99294.47
2023-04-12T08:55:05.244Z,99293.03
2023-04-12T09:00:09.704Z,99282.78
2023-04-12T09:05:14.513Z,99264.44
2023-04-12T09:10:33.517Z,99257.91
2023-04-12T09:15:36.833Z,99261.00
2023-04-12T09:20:40.475Z,99242.06
2023-04-12T09:25:48.611Z,99242.41
2023-04-12T09:30:55.475Z,99227.53
2023-04-12T09:36:03.113Z,99213.50
2023-04-12T09:41:22.303Z,99206.38
2023-04-12T09:46:29.487Z,99185.81
2023-04-12T09:51:36.524Z,99183.13
2023-04-12T09:56:42.368Z,99182.56
2023-04-12T10:01:47.979Z,99169.13
2023-04-12T10:06:51.620Z,99155.31
2023-04-12T10:11:57.736Z,99162.63
2023-04-12T10:17:02.112Z,99143.03
2023-04-12T10:22:06.142Z,99135.88
2023-04-12T10:27:11.045Z,99144.72
2023-04-12T10:32:23.220Z,99120.00
2023-04-12T10:37:59.343Z,99109.41
2023-04-12T10:43:29.036Z,99085.78
2023-04-12T10:48:35.045Z,99105.25
2023-04-12T10:53:38.450Z,99087.72
2023-04-12T10:59:00.825Z,99088.41
2023-04-12T11:04:14.068Z,99070.34
2023-04-12T11:09:22.971Z,99056.09
2023-04-12T11:14:30.872Z,99055.59
2023-04-12T11:19:34.874Z,99040.72
2023-04-12T11:24:39.917Z,99034.97
2023-04-12T11:29:45.259Z,99037.69
2023-04-12T11:34:49.398Z,99026.53
2023-04-12T11:39:54.936Z,99012.16
2023-04-12T11:45:04.810Z,99006.50
2023-04-12T11:50:13.422Z,99003.03
2023-04-12T11:55:19.203Z,98993.09
2023-04-12T12:00:27.741Z,98991.06
2023-04-12T12:05:37.182Z,98984.34
2023-04-12T12:10:52.441Z,98991.16
2023-04-12T12:16:10.243Z,98992.44
2023-04-12T12:21:14.982Z,98993.66
2023-04-12T12:26:22.651Z,98978.81
2023-04-12T12:31:28.825Z,98972.66
2023-04-12T12:36:33.518Z,98986.03
2023-04-12T12:41:37.004Z,98987.41
2023-04-12T12:51:49.356Z,98998.72
2023-04-12T12:56:52.706Z,99000.22
2023-04-12T13:01:57.739Z,98983.63
2023-04-12T13:07:04.935Z,98977.28
2023-04-12T13:12:08.319Z,98962.59
2023-04-12T13:17:13.101Z,98962.59
2023-04-12T13:22:16.798Z,98964.94
2023-04-12T13:27:22.729Z,98948.59
2023-04-12T13:32:27.583Z,98940.75
2023-04-12T13:37:30.954Z,98927.81
2023-04-12T13:42:34.064Z,98931.63
2023-04-12T13:47:39.659Z,98930.34
2023-04-12T13:52:44.428Z,98925.94
2023-04-12T13:57:47.742Z,98922.72
2023-04-12T14:02:52.591Z,98914.84
2023-04-12T14:07:56.258Z,98912.59
2023-04-12T14:12:59.895Z,98911.31
2023-04-12T14:18:04.794Z,98903.41
2023-04-12T14:23:08.297Z,98901.66
2023-04-12T14:28:16.739Z,98892.78
2023-04-12T14:33:21.975Z,98886.91
2023-04-12T14:38:25.917Z,98885.91
2023-04-12T14:43:29.922Z,98882.13
2023-04-12T14:48:34.913Z,98871.47
2023-04-12T14:53:38.336Z,98863.84
2023-04-12T14:58:41.888Z,98859.75
2023-04-12T15:03:47.613Z,98857.66
2023-04-12T15:08:55.241Z,98849.63
2023-04-12T15:13:59.097Z,98826.22
2023-04-12T15:19:10.453Z,98819.91
2023-04-12T15:24:17.933Z,98811.88
2023-04-12T15:29:22.441Z,98800.41
2023-04-12T15:34:28.780Z,98793.44
2023-04-12T15:39:32.113Z,98799.06
2023-04-12T15:44:35.286Z,98786.09
2023-04-12T15:49:40.298Z,98774.56
2023-04-12T15:54:44.865Z,98766.03
2023-04-12T15:59:50.985Z,98756.72
2023-04-12T16:04:56.624Z,98753.28
2023-04-12T16:10:00.025Z,98747.34
2023-04-12T16:15:03.404Z,98746.78
2023-04-12T16:20:10.724Z,98731.53
2023-04-12T16:25:14.768Z,98729.19
2023-04-12T16:30:19.531Z,98715.06
2023-04-12T16:35:25.123Z,98709.13
2023-04-12T16:40:29.009Z,98707.31
2023-04-12T16:45:32.881Z,98702.53
2023-04-12T16:50:38.148Z,98706.41
2023-04-12T16:55:45.195Z,98707.03
2023-04-12T17:00:49.553Z,98695.22
2023-04-12T17:05:54.247Z,98691.31
2023-04-12T17:10:57.354Z,98697.63
2023-04-12T17:16:00.964Z,98703.41
2023-04-12T17:21:06.396Z,98689.31
2023-04-12T17:26:09.956Z,98690.97
2023-04-12T17:31:13.487Z,98675.66
2023-04-12T17:36:18.678Z,98673.56
2023-04-12T17:41:22.700Z,98679.19
2023-04-12T17:46:26.518Z,98672.78
2023-04-12T17:51:32.394Z,98666.53
2023-04-12T17:56:38.194Z,98671.16
2023-04-12T18:01:42.435Z,98660.03
2023-04-12T18:06:48.220Z,98661.03
2023-04-12T18:11:51.686Z,98665.09
2023-04-12T18:16:55.215Z,98661.13
2023-04-12T18:22:00.431Z,98672.88
2023-04-12T18:27:05.108Z,98670.91
2023-04-12T18:32:08.188Z,98671.38
2023-04-12T18:37:17.650Z,98683.28
2023-04-12T18:42:21.146Z,98685.28
2023-04-12T18:47:24.970Z,98681.50
2023-04-12T18:52:29.795Z,98688.38
2023-04-12T18:57:33.330Z,98686.28
2023-04-12T19:02:44.483Z,98684.47
2023-04-12T19:07:49.892Z,98685.81
2023-04-12T19:12:53.148Z,98688.16
2023-04-12T19:17:57.947Z,98708.41
2023-04-12T19:23:07.778Z,98701.00
2023-04-12T19:28:11.288Z,98684.06
2023-04-12T19:33:18.412Z,98672.13
2023-04-12T19:38:23.630Z,98686.44
2023-04-12T19:43:26.820Z,98696.91
2023-04-12T19:48:31.196Z,98683.81
2023-04-12T19:53:36.046Z,98678.09
2023-04-12T19:58:41.420Z,98676.72
2023-04-12T20:03:45.558Z,98690.09
2023-04-12T20:08:52.400Z,98685.88
2023-04-12T20:13:56.287Z,98704.13
2023-04-12T20:18:59.800Z,98721.22
2023-04-12T20:24:08.826Z,98699.38
2023-04-12T20:29:11.995Z,98709.75
2023-04-12T20:34:15.126Z,98728.22
2023-04-12T20:39:19.949Z,98728.03
2023-04-12T20:44:23.912Z,98716.06
2023-04-12T20:49:27.946Z,98729.78
2023-04-12T20:54:34.107Z,98741.53
2023-04-12T20:59:38.520Z,98728.09
2023-04-12T21:04:42.882Z,98762.25
2023-04-12T21:09:47.639Z,98725.22
2023-04-12T21:14:51.508Z,98726.88
2023-04-12T21:19:54.755Z,98731.81
2023-04-12T21:24:59.524Z,98737.56
2023-04-12T21:30:03.021Z,98742.94
2023-04-12T21:35:07.497Z,98756.84
2023-04-12T21:40:14.100Z,98757.97
2023-04-12T21:45:17.858Z,98778.03
2023-04-12T21:50:21.369Z,98785.28
2023-04-12T21:55:28.413Z,98795.34
2023-04-12T22:00:33.937Z,98797.38
2023-04-12T22:05:39.866Z,98791.59
2023-04-12T22:10:45.088Z,98816.94
2023-04-12T22:15:48.287Z,98828.88
2023-04-12T22:20:54.061Z,98820.19
2023-04-12T22:25:58.714Z,98812.88
2023-04-12T22:31:02.311Z,98815.72
2023-04-12T22:36:08.922Z,98794.66
2023-04-12T22:41:16.866Z,98811.88
2023-04-12T22:46:21.405Z,98812.41
2023-04-12T22:51:27.556Z,98807.38
2023-04-12T22:56:32.631Z,98805.28
2023-04-12T23:01:36.035Z,98807.56
2023-04-12T23:06:40.521Z,98801.38
2023-04-12T23:11:45.225Z,98807.41
2023-04-12T23:16:51.808Z,98820.81
2023-04-12T23:21:56.177Z,98830.25
2023-04-12T23:27:01.014Z,98821.72
2023-04-12T23:32:04.300Z,98819.44
2023-04-12T23:37:08.833Z,98832.81
2023-04-12T23:42:13.607Z,98829.72
2023-04-12T23:47:17.282Z,98839.28
2023-04-12T23:52:20.589Z,98877.59
2023-04-12T23:57:25.268Z,98885.22
